CheckWX is a tool to help pilots better visualize weather data.  It is not intended as a substitute for an official pre-flight weather briefing.

06:09:07 UTC

CYNE METAR
Norway House Airport
Norway House, Canada
Current

1 hour ago

CYNE 230500Z AUTO 13002KT 9SM CLR 01/M03 A3010 RMK SLP206
Observed
Apr-23 @ 05:00 UTC
Wind
  • 130° at 2 KTS
Visibility
9 SM
Flight Rules
VFR
Cloud Levels
  • Clear skies
Temperature
C / 34°F
Dewpoint
-3°C / 27°F
Humidity
75%
Altimeter
30.1" Hg
Pressure
1019.32 hPa
Previous

2 hours ago

CYNE 230423Z AUTO 17003KT 7SM CLR 02/M03 A3012 RMK SLP212
Observed
Apr-23 @ 04:23 UTC
Wind
  • 170° at 3 KTS
Visibility
7 SM
Flight Rules
VFR
Cloud Levels
  • Clear skies
Temperature
C / 36°F
Dewpoint
-3°C / 27°F
Humidity
70%
Altimeter
30.12" Hg
Pressure
1020.02 hPa
Previous

2 hours ago

CYNE 230414Z AUTO 17004KT 5SM HZ CLR 01/M03 A3012 RMK SLP213
Observed
Apr-23 @ 04:14 UTC
Wind
  • 170° at 4 KTS
Visibility
5 SM
Flight Rules
MVFR
Conditions
Haze
Cloud Levels
  • Clear skies
Temperature
C / 34°F
Dewpoint
-3°C / 27°F
Humidity
75%
Altimeter
30.12" Hg
Pressure
1020.02 hPa